createdAt,value
2023-05-05T00:03:53.119Z,13.68
2023-05-05T00:12:01.089Z,13.43
2023-05-05T00:20:07.253Z,14.23
2023-05-05T00:28:15.504Z,14.23
2023-05-05T00:36:20.915Z,17.25
2023-05-05T00:44:45.132Z,11.85
2023-05-05T00:52:50.658Z,16.08
2023-05-05T01:00:58.686Z,19.67
2023-05-05T01:09:13.215Z,15.00
2023-05-05T01:17:24.990Z,16.75
2023-05-05T01:25:53.517Z,14.85
2023-05-05T01:34:07.172Z,11.77
2023-05-05T01:42:16.458Z,10.20
2023-05-05T01:50:25.779Z,13.52
2023-05-05T01:58:33.066Z,15.38
2023-05-05T02:06:43.057Z,15.68
2023-05-05T02:14:49.964Z,18.13
2023-05-05T02:22:58.917Z,21.75
2023-05-05T02:31:05.740Z,18.95
2023-05-05T02:39:17.410Z,17.08
2023-05-05T02:47:24.264Z,18.92
2023-05-05T02:55:40.089Z,32.88
2023-05-05T03:03:50.237Z,33.55
2023-05-05T03:12:05.016Z,26.98
2023-05-05T03:20:18.360Z,30.70
2023-05-05T03:28:29.503Z,24.88
2023-05-05T03:36:38.319Z,19.58
2023-05-05T03:44:48.743Z,18.27
2023-05-05T03:52:54.571Z,16.75
2023-05-05T04:01:03.011Z,18.00
2023-05-05T04:09:09.063Z,18.67
2023-05-05T04:17:18.862Z,20.75
2023-05-05T04:25:24.416Z,23.98
2023-05-05T04:33:32.730Z,32.65
2023-05-05T04:41:38.352Z,30.27
2023-05-05T04:49:46.669Z,33.42
2023-05-05T04:57:52.171Z,26.98
2023-05-05T05:06:00.533Z,23.23
2023-05-05T05:14:06.115Z,21.00
2023-05-05T05:22:14.741Z,21.67
2023-05-05T05:30:22.021Z,24.08
2023-05-05T05:38:30.368Z,24.00
2023-05-05T05:46:39.005Z,25.65
2023-05-05T05:54:47.486Z,28.25
2023-05-05T06:02:53.408Z,26.55
2023-05-05T06:11:05.468Z,24.65
2023-05-05T06:19:11.404Z,23.25
2023-05-05T06:27:19.802Z,18.63
2023-05-05T06:35:28.054Z,14.98
2023-05-05T06:43:36.199Z,15.27
2023-05-05T06:51:46.204Z,14.67
2023-05-05T06:59:54.214Z,12.73
2023-05-05T07:08:00.225Z,12.05
2023-05-05T07:16:08.910Z,11.13
2023-05-05T07:24:18.095Z,11.27
2023-05-05T07:32:26.263Z,12.80
2023-05-05T07:40:31.705Z,9.57
2023-05-05T07:48:41.835Z,9.25
2023-05-05T07:56:48.881Z,13.45
2023-05-05T08:04:56.936Z,9.82
2023-05-05T08:13:02.521Z,8.60
2023-05-05T08:21:11.437Z,8.20
2023-05-05T08:29:22.364Z,7.28
2023-05-05T08:37:30.779Z,6.32
2023-05-05T08:45:36.434Z,5.70
2023-05-05T08:53:54.491Z,7.03
2023-05-05T09:02:00.694Z,5.85
2023-05-05T09:10:12.595Z,3.65
2023-05-05T09:18:18.207Z,3.60
2023-05-05T09:26:26.669Z,4.65
2023-05-05T09:34:33.187Z,3.83
2023-05-05T09:42:45.013Z,4.13
2023-05-05T09:50:50.744Z,3.80
2023-05-05T09:59:12.079Z,2.90
2023-05-05T10:07:27.556Z,5.35
2023-05-05T10:15:35.566Z,3.53
2023-05-05T10:23:44.655Z,3.25
2023-05-05T10:31:57.213Z,2.83
2023-05-05T10:48:17.594Z,3.72
2023-05-05T10:56:28.883Z,1.83
2023-05-05T11:04:36.996Z,2.55
2023-05-05T11:13:15.490Z,1.80
2023-05-05T11:21:24.614Z,1.75
2023-05-05T11:29:30.308Z,2.50
2023-05-05T11:37:40.695Z,2.75
2023-05-05T11:45:47.719Z,3.33
2023-05-05T11:53:57.329Z,2.90
2023-05-05T12:02:04.055Z,2.92
2023-05-05T12:10:13.392Z,2.03
2023-05-05T12:18:22.084Z,2.25
2023-05-05T12:26:42.120Z,2.35
2023-05-05T12:34:48.526Z,1.55
2023-05-05T12:42:56.614Z,2.28
2023-05-05T12:51:18.139Z,2.40
2023-05-05T12:59:35.320Z,3.38
2023-05-05T13:07:53.700Z,4.07
2023-05-05T13:16:01.856Z,2.40
2023-05-05T13:24:23.654Z,2.38
2023-05-05T13:32:36.871Z,2.50
2023-05-05T13:40:42.290Z,4.72
2023-05-05T13:48:52.502Z,5.50
2023-05-05T13:57:01.480Z,5.32
2023-05-05T14:05:11.102Z,5.88
2023-05-05T14:13:16.724Z,3.97
2023-05-05T14:21:24.964Z,4.18
2023-05-05T14:29:30.469Z,4.90
2023-05-05T14:37:38.462Z,4.20
2023-05-05T14:45:44.486Z,2.22
2023-05-05T14:53:52.625Z,3.83
2023-05-05T15:01:58.974Z,2.95
2023-05-05T15:10:08.456Z,2.38
2023-05-05T15:18:14.007Z,3.30
2023-05-05T15:26:24.130Z,3.13
2023-05-05T15:34:29.605Z,5.22
2023-05-05T15:42:40.517Z,3.72
2023-05-05T15:50:45.956Z,3.67
2023-05-05T15:58:54.059Z,3.60
2023-05-05T16:06:59.493Z,3.72
2023-05-05T16:15:08.679Z,1.75
2023-05-05T16:23:24.508Z,3.05
2023-05-05T16:31:34.154Z,2.63
2023-05-05T16:39:41.529Z,3.42
2023-05-05T16:47:49.959Z,5.03
2023-05-05T16:55:56.533Z,5.82
2023-05-05T17:04:04.622Z,4.45
2023-05-05T17:12:10.963Z,4.10
2023-05-05T17:20:19.281Z,3.03
2023-05-05T17:28:24.671Z,2.65
2023-05-05T17:36:35.800Z,4.55
2023-05-05T17:44:41.145Z,4.03
2023-05-05T17:52:50.807Z,4.10
2023-05-05T18:00:56.316Z,7.10
2023-05-05T18:09:04.894Z,6.43
2023-05-05T18:17:10.289Z,13.63
2023-05-05T18:25:19.407Z,24.20
2023-05-05T18:33:24.851Z,22.27
2023-05-05T18:41:33.092Z,14.93
2023-05-05T18:49:38.625Z,8.18
2023-05-05T18:57:46.743Z,7.90
2023-05-05T19:05:52.457Z,9.85
2023-05-05T19:14:01.497Z,10.85
2023-05-05T19:22:07.115Z,12.00
2023-05-05T19:30:16.533Z,16.10
2023-05-05T19:38:22.124Z,12.93
2023-05-05T19:46:30.209Z,11.88
2023-05-05T19:54:36.412Z,14.88
2023-05-05T20:02:47.846Z,13.77
2023-05-05T20:10:53.268Z,15.88
2023-05-05T20:19:01.303Z,15.43
2023-05-05T20:27:06.939Z,14.20
2023-05-05T20:35:15.370Z,16.00
2023-05-05T20:43:21.424Z,18.35
2023-05-05T20:51:32.246Z,18.17
2023-05-05T20:59:37.724Z,15.00
2023-05-05T21:07:47.130Z,16.63
2023-05-05T21:15:53.323Z,15.93
2023-05-05T21:24:01.446Z,11.50
2023-05-05T21:32:12.270Z,13.27
2023-05-05T21:40:20.769Z,8.98
2023-05-05T21:48:28.614Z,9.95
2023-05-05T21:56:37.023Z,9.05
2023-05-05T22:04:42.681Z,11.65
2023-05-05T22:12:51.196Z,10.60
2023-05-05T22:20:57.145Z,7.70
2023-05-05T22:29:05.507Z,8.43
2023-05-05T22:37:11.912Z,7.30
2023-05-05T22:45:20.270Z,9.15
2023-05-05T22:53:27.571Z,7.35
2023-05-05T23:01:36.389Z,8.48
2023-05-05T23:09:42.332Z,8.27
2023-05-05T23:17:50.600Z,8.98
2023-05-05T23:25:56.338Z,9.65
2023-05-05T23:34:04.684Z,9.85
2023-05-05T23:42:10.166Z,8.05
2023-05-05T23:50:18.080Z,6.72
2023-05-05T23:58:23.758Z,7.07
